Roanoke Regional Woodrum Field
KROA : rendu visible

Aérodrome :











RETROUVEZ-NOUS SUR...

 
LOGIN :

S'inscrire | Disclaimer

   EN    FR    IT 

 









Légende :    VFR   VFR Marginal   IFR   IFR Intensif   IFR Très Intensif
Visi : 
Plafond : 
>= 8 km
>= 3000ft
5 à 8 km
1000 à 3000 ft
1500m à 5 km
500 à 1000 ft
800 à 1500m
200 à 500 ft
< 800m
< 200 ft
Symboles :   Orages  Brouillard  Fortes neiges  Fortes précipitations  Vent > 20 kt






- Altitude de l'aérodrome : 1175 ft
- Code IATA : ROA


KROA - Roanoke Regional Woodrum Field

DERNIER METAR :
  • 150654Z 00000KT 10SM SCT250 01/M04 A3027 RMK AO2 SLP257 T00111044

METARs EXPIRÉS :
  • 150554Z 03003KT 10SM BKN095 01/M04 A3030 RMK AO2 SLP267 T00061039 10050 20000 58003
  • 150454Z 33003KT 10SM SCT100 00/M04 A3031 RMK AO2 SLP272 T00001044 400671078

TAF KROA
Valide du 15 à 06h jusqu'au 16 à 06h UTC


150520Z 1506/1606 VRB04KT P6SM BKN110 OVC160
FM151200 02006KT P6SM SCT090 BKN200
FM152300 01007KT P6SM SCT080 BKN220



MET'MAP, la Météo Aéronautique d'un coup d'oeil ! - Copyright ORBIFLY Décembre 2007 - Disclaimer

ORBIFLY MET'MAP TEAM :

Programmation & Développement : Alexandra Zaïnal
Conception & Développement : Baudouin d'Aumeries
Co-Programmation & Développement : Marc-Olivier Méhu
Soutien technique & logistique : Manuel Goepfert

Contact : metmap@orbifly.com




SOURCES & CREDITS :

   NOAA       Earth
Advisory